sensor_id;sensor_type;location;lat;lon;timestamp;P1;durP1;ratioP1;P2;durP2;ratioP2
82806;SDS011;72563;44.816;20.484;2024-03-08T00:00:11;13.98;;;6.78;;
82806;SDS011;72563;44.816;20.484;2024-03-08T00:02:38;13.48;;;6.93;;
82806;SDS011;72563;44.816;20.484;2024-03-08T00:05:04;12.77;;;6.50;;
82806;SDS011;72563;44.816;20.484;2024-03-08T00:07:31;13.10;;;6.68;;
82806;SDS011;72563;44.816;20.484;2024-03-08T00:09:57;13.88;;;7.60;;
82806;SDS011;72563;44.816;20.484;2024-03-08T00:12:23;13.65;;;6.60;;
82806;SDS011;72563;44.816;20.484;2024-03-08T00:14:51;12.23;;;6.53;;
82806;SDS011;72563;44.816;20.484;2024-03-08T00:17:16;12.85;;;6.72;;
82806;SDS011;72563;44.816;20.484;2024-03-08T00:19:42;15.02;;;6.82;;
82806;SDS011;72563;44.816;20.484;2024-03-08T00:22:08;15.85;;;7.30;;
82806;SDS011;72563;44.816;20.484;2024-03-08T00:24:35;12.48;;;6.57;;
82806;SDS011;72563;44.816;20.484;2024-03-08T00:27:00;12.38;;;5.93;;
82806;SDS011;72563;44.816;20.484;2024-03-08T00:29:27;14.85;;;6.95;;
82806;SDS011;72563;44.816;20.484;2024-03-08T00:31:52;13.00;;;6.45;;
82806;SDS011;72563;44.816;20.484;2024-03-08T00:34:18;13.02;;;6.50;;
82806;SDS011;72563;44.816;20.484;2024-03-08T00:36:43;12.65;;;6.97;;
82806;SDS011;72563;44.816;20.484;2024-03-08T00:39:09;14.00;;;7.32;;
82806;SDS011;72563;44.816;20.484;2024-03-08T00:41:37;10.63;;;5.55;;
82806;SDS011;72563;44.816;20.484;2024-03-08T00:44:02;10.65;;;5.93;;
82806;SDS011;72563;44.816;20.484;2024-03-08T00:46:29;11.98;;;6.18;;
82806;SDS011;72563;44.816;20.484;2024-03-08T00:48:56;11.68;;;5.68;;
82806;SDS011;72563;44.816;20.484;2024-03-08T00:51:22;10.65;;;6.20;;
82806;SDS011;72563;44.816;20.484;2024-03-08T00:53:47;11.27;;;5.80;;
82806;SDS011;72563;44.816;20.484;2024-03-08T00:56:13;11.23;;;6.05;;
82806;SDS011;72563;44.816;20.484;2024-03-08T00:58:39;12.38;;;6.57;;
82806;SDS011;72563;44.816;20.484;2024-03-08T01:01:05;12.95;;;5.65;;
82806;SDS011;72563;44.816;20.484;2024-03-08T01:03:31;11.48;;;6.03;;
82806;SDS011;72563;44.816;20.484;2024-03-08T01:05:57;11.48;;;5.97;;
82806;SDS011;72563;44.816;20.484;2024-03-08T01:08:26;12.88;;;6.30;;
82806;SDS011;72563;44.816;20.484;2024-03-08T01:10:52;14.35;;;6.43;;
82806;SDS011;72563;44.816;20.484;2024-03-08T01:13:18;11.20;;;5.78;;
82806;SDS011;72563;44.816;20.484;2024-03-08T01:15:44;11.50;;;5.32;;
82806;SDS011;72563;44.816;20.484;2024-03-08T01:18:11;12.20;;;5.78;;
82806;SDS011;72563;44.816;20.484;2024-03-08T01:20:37;9.90;;;5.47;;
82806;SDS011;72563;44.816;20.484;2024-03-08T01:23:02;11.80;;;5.78;;
82806;SDS011;72563;44.816;20.484;2024-03-08T01:25:30;11.55;;;5.72;;
82806;SDS011;72563;44.816;20.484;2024-03-08T01:27:57;11.68;;;6.03;;
82806;SDS011;72563;44.816;20.484;2024-03-08T01:30:22;10.57;;;5.63;;
82806;SDS011;72563;44.816;20.484;2024-03-08T01:32:48;10.80;;;5.45;;
82806;SDS011;72563;44.816;20.484;2024-03-08T01:35:14;11.88;;;5.93;;
82806;SDS011;72563;44.816;20.484;2024-03-08T01:37:39;9.57;;;5.47;;
82806;SDS011;72563;44.816;20.484;2024-03-08T01:40:05;10.63;;;5.47;;
82806;SDS011;72563;44.816;20.484;2024-03-08T01:42:33;9.20;;;4.93;;
82806;SDS011;72563;44.816;20.484;2024-03-08T01:45:04;10.07;;;5.38;;
82806;SDS011;72563;44.816;20.484;2024-03-08T01:47:31;10.05;;;5.53;;
82806;SDS011;72563;44.816;20.484;2024-03-08T01:49:58;11.07;;;5.93;;
82806;SDS011;72563;44.816;20.484;2024-03-08T01:52:26;11.90;;;5.95;;
82806;SDS011;72563;44.816;20.484;2024-03-08T01:54:54;9.68;;;5.10;;
82806;SDS011;72563;44.816;20.484;2024-03-08T01:57:20;10.10;;;5.38;;
82806;SDS011;72563;44.816;20.484;2024-03-08T01:59:46;11.27;;;5.40;;
82806;SDS011;72563;44.816;20.484;2024-03-08T02:02:12;10.80;;;5.57;;
82806;SDS011;72563;44.816;20.484;2024-03-08T02:04:42;12.10;;;5.78;;
82806;SDS011;72563;44.816;20.484;2024-03-08T02:07:07;9.93;;;5.35;;
82806;SDS011;72563;44.816;20.484;2024-03-08T02:09:33;10.35;;;5.00;;
82806;SDS011;72563;44.816;20.484;2024-03-08T02:11:58;12.05;;;5.95;;
82806;SDS011;72563;44.816;20.484;2024-03-08T02:14:24;11.45;;;6.10;;
82806;SDS011;72563;44.816;20.484;2024-03-08T02:16:50;10.45;;;5.10;;
82806;SDS011;72563;44.816;20.484;2024-03-08T02:19:16;11.50;;;5.75;;
82806;SDS011;72563;44.816;20.484;2024-03-08T02:21:42;11.02;;;5.35;;
82806;SDS011;72563;44.816;20.484;2024-03-08T02:24:08;9.02;;;5.00;;
82806;SDS011;72563;44.816;20.484;2024-03-08T02:26:35;12.15;;;5.25;;
82806;SDS011;72563;44.816;20.484;2024-03-08T02:29:01;9.70;;;5.53;;
82806;SDS011;72563;44.816;20.484;2024-03-08T02:31:27;11.50;;;5.40;;
82806;SDS011;72563;44.816;20.484;2024-03-08T02:33:53;10.05;;;5.10;;
82806;SDS011;72563;44.816;20.484;2024-03-08T02:36:19;12.68;;;6.03;;
82806;SDS011;72563;44.816;20.484;2024-03-08T02:38:45;9.52;;;5.60;;
82806;SDS011;72563;44.816;20.484;2024-03-08T02:41:10;10.57;;;5.45;;
82806;SDS011;72563;44.816;20.484;2024-03-08T02:43:36;9.20;;;4.88;;
82806;SDS011;72563;44.816;20.484;2024-03-08T02:46:02;10.10;;;5.25;;
82806;SDS011;72563;44.816;20.484;2024-03-08T02:48:27;9.88;;;4.72;;
82806;SDS011;72563;44.816;20.484;2024-03-08T02:50:53;10.50;;;4.82;;
82806;SDS011;72563;44.816;20.484;2024-03-08T02:53:18;11.02;;;5.03;;
82806;SDS011;72563;44.816;20.484;2024-03-08T02:55:44;9.88;;;5.57;;
82806;SDS011;72563;44.816;20.484;2024-03-08T02:58:10;12.25;;;5.40;;
82806;SDS011;72563;44.816;20.484;2024-03-08T03:00:38;9.65;;;4.78;;
82806;SDS011;72563;44.816;20.484;2024-03-08T03:03:04;9.85;;;4.80;;
82806;SDS011;72563;44.816;20.484;2024-03-08T03:05:31;9.93;;;4.70;;
82806;SDS011;72563;44.816;20.484;2024-03-08T03:07:57;9.82;;;4.30;;
82806;SDS011;72563;44.816;20.484;2024-03-08T03:10:23;9.98;;;4.55;;
82806;SDS011;72563;44.816;20.484;2024-03-08T03:12:49;8.98;;;4.32;;
82806;SDS011;72563;44.816;20.484;2024-03-08T03:15:15;8.90;;;4.70;;
82806;SDS011;72563;44.816;20.484;2024-03-08T03:17:47;8.90;;;4.20;;
82806;SDS011;72563;44.816;20.484;2024-03-08T03:20:16;10.00;;;4.65;;
82806;SDS011;72563;44.816;20.484;2024-03-08T03:22:48;8.10;;;4.18;;
82806;SDS011;72563;44.816;20.484;2024-03-08T03:25:17;8.52;;;4.07;;
82806;SDS011;72563;44.816;20.484;2024-03-08T03:27:51;9.30;;;4.68;;
82806;SDS011;72563;44.816;20.484;2024-03-08T03:30:22;8.57;;;4.15;;
82806;SDS011;72563;44.816;20.484;2024-03-08T03:32:48;9.02;;;4.45;;
82806;SDS011;72563;44.816;20.484;2024-03-08T03:35:16;7.43;;;3.80;;
82806;SDS011;72563;44.816;20.484;2024-03-08T03:37:42;10.20;;;4.90;;
82806;SDS011;72563;44.816;20.484;2024-03-08T03:40:11;8.77;;;4.03;;
82806;SDS011;72563;44.816;20.484;2024-03-08T03:42:38;8.57;;;4.20;;
82806;SDS011;72563;44.816;20.484;2024-03-08T03:45:05;8.80;;;4.18;;
82806;SDS011;72563;44.816;20.484;2024-03-08T03:47:31;9.20;;;4.20;;
82806;SDS011;72563;44.816;20.484;2024-03-08T03:49:56;8.50;;;4.10;;
82806;SDS011;72563;44.816;20.484;2024-03-08T03:52:27;8.98;;;4.45;;
82806;SDS011;72563;44.816;20.484;2024-03-08T03:54:52;10.43;;;5.10;;
82806;SDS011;72563;44.816;20.484;2024-03-08T03:57:18;9.00;;;4.70;;
82806;SDS011;72563;44.816;20.484;2024-03-08T03:59:45;7.55;;;4.18;;
82806;SDS011;72563;44.816;20.484;2024-03-08T04:02:12;10.40;;;5.53;;
82806;SDS011;72563;44.816;20.484;2024-03-08T04:04:38;12.38;;;5.38;;
82806;SDS011;72563;44.816;20.484;2024-03-08T04:07:03;11.02;;;5.43;;
82806;SDS011;72563;44.816;20.484;2024-03-08T04:09:30;11.38;;;5.57;;
82806;SDS011;72563;44.816;20.484;2024-03-08T04:11:55;9.88;;;5.22;;
82806;SDS011;72563;44.816;20.484;2024-03-08T04:14:22;9.85;;;5.25;;
82806;SDS011;72563;44.816;20.484;2024-03-08T04:16:48;9.55;;;5.05;;
82806;SDS011;72563;44.816;20.484;2024-03-08T04:19:14;10.65;;;5.40;;
82806;SDS011;72563;44.816;20.484;2024-03-08T04:21:39;10.50;;;5.40;;
82806;SDS011;72563;44.816;20.484;2024-03-08T04:24:05;10.43;;;5.32;;
82806;SDS011;72563;44.816;20.484;2024-03-08T04:26:31;10.75;;;5.53;;
82806;SDS011;72563;44.816;20.484;2024-03-08T04:28:57;9.73;;;4.90;;
82806;SDS011;72563;44.816;20.484;2024-03-08T04:31:22;9.02;;;4.47;;
82806;SDS011;72563;44.816;20.484;2024-03-08T04:33:48;11.35;;;5.00;;
82806;SDS011;72563;44.816;20.484;2024-03-08T04:36:13;9.75;;;4.95;;
82806;SDS011;72563;44.816;20.484;2024-03-08T04:38:39;10.32;;;4.90;;
82806;SDS011;72563;44.816;20.484;2024-03-08T04:41:06;10.48;;;4.95;;
82806;SDS011;72563;44.816;20.484;2024-03-08T04:43:32;10.23;;;5.15;;
82806;SDS011;72563;44.816;20.484;2024-03-08T04:45:59;11.93;;;5.72;;
82806;SDS011;72563;44.816;20.484;2024-03-08T04:48:25;10.30;;;5.60;;
82806;SDS011;72563;44.816;20.484;2024-03-08T04:50:53;9.63;;;4.55;;
82806;SDS011;72563;44.816;20.484;2024-03-08T04:53:19;9.55;;;4.63;;
82806;SDS011;72563;44.816;20.484;2024-03-08T04:55:45;9.07;;;5.03;;
82806;SDS011;72563;44.816;20.484;2024-03-08T04:58:10;9.70;;;4.47;;
82806;SDS011;72563;44.816;20.484;2024-03-08T05:00:36;9.27;;;5.03;;
82806;SDS011;72563;44.816;20.484;2024-03-08T05:03:02;9.07;;;4.88;;
82806;SDS011;72563;44.816;20.484;2024-03-08T05:05:27;9.18;;;4.60;;
82806;SDS011;72563;44.816;20.484;2024-03-08T05:07:54;9.00;;;5.10;;
82806;SDS011;72563;44.816;20.484;2024-03-08T05:10:20;8.98;;;4.30;;
82806;SDS011;72563;44.816;20.484;2024-03-08T05:12:45;9.15;;;4.65;;
82806;SDS011;72563;44.816;20.484;2024-03-08T05:15:11;8.93;;;4.45;;
82806;SDS011;72563;44.816;20.484;2024-03-08T05:17:36;10.45;;;5.15;;
82806;SDS011;72563;44.816;20.484;2024-03-08T05:20:02;9.20;;;4.65;;
82806;SDS011;72563;44.816;20.484;2024-03-08T05:22:33;8.90;;;4.35;;
82806;SDS011;72563;44.816;20.484;2024-03-08T05:24:59;10.30;;;4.32;;
82806;SDS011;72563;44.816;20.484;2024-03-08T05:27:24;10.15;;;4.57;;
82806;SDS011;72563;44.816;20.484;2024-03-08T05:29:50;7.82;;;4.13;;
82806;SDS011;72563;44.816;20.484;2024-03-08T05:32:16;8.40;;;3.92;;
82806;SDS011;72563;44.816;20.484;2024-03-08T05:34:41;8.10;;;3.83;;
82806;SDS011;72563;44.816;20.484;2024-03-08T05:37:07;9.10;;;4.35;;
82806;SDS011;72563;44.816;20.484;2024-03-08T05:39:33;8.68;;;4.43;;
82806;SDS011;72563;44.816;20.484;2024-03-08T05:41:59;9.20;;;4.45;;
82806;SDS011;72563;44.816;20.484;2024-03-08T05:44:25;9.80;;;4.35;;
82806;SDS011;72563;44.816;20.484;2024-03-08T05:46:53;8.23;;;4.53;;
82806;SDS011;72563;44.816;20.484;2024-03-08T05:49:19;9.13;;;4.50;;
82806;SDS011;72563;44.816;20.484;2024-03-08T05:51:46;8.88;;;4.38;;
82806;SDS011;72563;44.816;20.484;2024-03-08T05:54:12;10.27;;;4.20;;
82806;SDS011;72563;44.816;20.484;2024-03-08T05:56:38;9.60;;;4.80;;
82806;SDS011;72563;44.816;20.484;2024-03-08T05:59:08;10.27;;;4.68;;
82806;SDS011;72563;44.816;20.484;2024-03-08T06:01:34;9.65;;;4.53;;
82806;SDS011;72563;44.816;20.484;2024-03-08T06:04:01;10.68;;;4.95;;
82806;SDS011;72563;44.816;20.484;2024-03-08T06:06:28;10.27;;;4.40;;
82806;SDS011;72563;44.816;20.484;2024-03-08T06:08:54;12.23;;;4.82;;
82806;SDS011;72563;44.816;20.484;2024-03-08T06:11:24;11.38;;;4.82;;
82806;SDS011;72563;44.816;20.484;2024-03-08T06:13:52;11.15;;;5.15;;
82806;SDS011;72563;44.816;20.484;2024-03-08T06:16:25;10.30;;;5.00;;
82806;SDS011;72563;44.816;20.484;2024-03-08T06:18:54;9.98;;;4.85;;
82806;SDS011;72563;44.816;20.484;2024-03-08T06:21:26;9.95;;;4.53;;
82806;SDS011;72563;44.816;20.484;2024-03-08T06:23:54;10.60;;;4.65;;
82806;SDS011;72563;44.816;20.484;2024-03-08T06:26:22;11.40;;;5.15;;
82806;SDS011;72563;44.816;20.484;2024-03-08T06:28:49;10.48;;;4.72;;
82806;SDS011;72563;44.816;20.484;2024-03-08T06:31:16;9.68;;;4.53;;
82806;SDS011;72563;44.816;20.484;2024-03-08T06:33:42;9.85;;;4.82;;
82806;SDS011;72563;44.816;20.484;2024-03-08T06:36:08;10.50;;;4.82;;
82806;SDS011;72563;44.816;20.484;2024-03-08T06:38:34;11.52;;;5.38;;
82806;SDS011;72563;44.816;20.484;2024-03-08T06:41:00;10.10;;;4.95;;
82806;SDS011;72563;44.816;20.484;2024-03-08T06:45:59;11.75;;;5.03;;
82806;SDS011;72563;44.816;20.484;2024-03-08T06:48:25;11.07;;;4.75;;
82806;SDS011;72563;44.816;20.484;2024-03-08T06:50:50;10.50;;;4.50;;
82806;SDS011;72563;44.816;20.484;2024-03-08T06:53:16;10.60;;;5.10;;
82806;SDS011;72563;44.816;20.484;2024-03-08T06:55:44;11.77;;;5.40;;
82806;SDS011;72563;44.816;20.484;2024-03-08T06:58:10;9.88;;;5.47;;
82806;SDS011;72563;44.816;20.484;2024-03-08T07:00:36;10.55;;;5.30;;
82806;SDS011;72563;44.816;20.484;2024-03-08T07:03:02;11.27;;;5.68;;
82806;SDS011;72563;44.816;20.484;2024-03-08T07:05:28;11.80;;;5.38;;
82806;SDS011;72563;44.816;20.484;2024-03-08T07:07:55;11.15;;;5.28;;
82806;SDS011;72563;44.816;20.484;2024-03-08T07:10:21;11.70;;;5.97;;
82806;SDS011;72563;44.816;20.484;2024-03-08T07:12:49;10.23;;;5.13;;
82806;SDS011;72563;44.816;20.484;2024-03-08T07:15:16;11.57;;;5.70;;
82806;SDS011;72563;44.816;20.484;2024-03-08T07:17:44;12.10;;;5.47;;
82806;SDS011;72563;44.816;20.484;2024-03-08T07:20:11;10.90;;;5.22;;
82806;SDS011;72563;44.816;20.484;2024-03-08T07:22:38;13.77;;;5.88;;
82806;SDS011;72563;44.816;20.484;2024-03-08T07:25:05;10.02;;;5.03;;
82806;SDS011;72563;44.816;20.484;2024-03-08T07:27:49;10.68;;;5.22;;
82806;SDS011;72563;44.816;20.484;2024-03-08T07:30:20;11.50;;;5.55;;
82806;SDS011;72563;44.816;20.484;2024-03-08T07:33:05;12.18;;;4.75;;
82806;SDS011;72563;44.816;20.484;2024-03-08T07:35:32;11.15;;;5.47;;
82806;SDS011;72563;44.816;20.484;2024-03-08T07:38:03;11.80;;;5.65;;
82806;SDS011;72563;44.816;20.484;2024-03-08T07:40:35;12.80;;;6.32;;
82806;SDS011;72563;44.816;20.484;2024-03-08T07:43:05;11.95;;;6.00;;
82806;SDS011;72563;44.816;20.484;2024-03-08T07:45:31;12.27;;;6.65;;
82806;SDS011;72563;44.816;20.484;2024-03-08T07:47:57;13.10;;;6.03;;
82806;SDS011;72563;44.816;20.484;2024-03-08T07:50:22;11.75;;;5.53;;
82806;SDS011;72563;44.816;20.484;2024-03-08T07:52:48;13.10;;;6.20;;
82806;SDS011;72563;44.816;20.484;2024-03-08T07:55:14;14.50;;;6.63;;
82806;SDS011;72563;44.816;20.484;2024-03-08T07:57:40;13.45;;;6.25;;
82806;SDS011;72563;44.816;20.484;2024-03-08T08:00:06;13.80;;;6.20;;
82806;SDS011;72563;44.816;20.484;2024-03-08T08:02:36;15.00;;;7.15;;
82806;SDS011;72563;44.816;20.484;2024-03-08T08:05:01;15.82;;;7.13;;
82806;SDS011;72563;44.816;20.484;2024-03-08T08:07:28;15.98;;;7.80;;
82806;SDS011;72563;44.816;20.484;2024-03-08T08:09:54;14.60;;;7.90;;
82806;SDS011;72563;44.816;20.484;2024-03-08T08:12:20;15.25;;;7.28;;
82806;SDS011;72563;44.816;20.484;2024-03-08T08:14:46;15.48;;;6.72;;
82806;SDS011;72563;44.816;20.484;2024-03-08T08:17:12;16.13;;;7.20;;
82806;SDS011;72563;44.816;20.484;2024-03-08T08:19:37;13.82;;;7.30;;
82806;SDS011;72563;44.816;20.484;2024-03-08T08:24:33;14.95;;;6.90;;
82806;SDS011;72563;44.816;20.484;2024-03-08T08:26:59;16.50;;;7.30;;
82806;SDS011;72563;44.816;20.484;2024-03-08T08:29:26;16.02;;;7.82;;
82806;SDS011;72563;44.816;20.484;2024-03-08T08:31:51;15.27;;;7.05;;
82806;SDS011;72563;44.816;20.484;2024-03-08T08:34:17;14.13;;;7.35;;
82806;SDS011;72563;44.816;20.484;2024-03-08T08:36:44;16.77;;;7.32;;
82806;SDS011;72563;44.816;20.484;2024-03-08T08:39:10;15.40;;;7.35;;
82806;SDS011;72563;44.816;20.484;2024-03-08T08:41:39;16.45;;;7.68;;
82806;SDS011;72563;44.816;20.484;2024-03-08T08:44:07;15.77;;;8.57;;
82806;SDS011;72563;44.816;20.484;2024-03-08T08:46:37;14.07;;;7.22;;
82806;SDS011;72563;44.816;20.484;2024-03-08T08:49:03;13.80;;;7.32;;
82806;SDS011;72563;44.816;20.484;2024-03-08T08:51:30;14.75;;;7.47;;
82806;SDS011;72563;44.816;20.484;2024-03-08T08:53:58;14.70;;;7.63;;
82806;SDS011;72563;44.816;20.484;2024-03-08T08:56:25;15.77;;;8.13;;
82806;SDS011;72563;44.816;20.484;2024-03-08T08:58:51;18.70;;;8.90;;
82806;SDS011;72563;44.816;20.484;2024-03-08T09:01:18;17.80;;;8.23;;
82806;SDS011;72563;44.816;20.484;2024-03-08T09:03:44;17.33;;;8.40;;
82806;SDS011;72563;44.816;20.484;2024-03-08T09:06:12;16.02;;;7.32;;
82806;SDS011;72563;44.816;20.484;2024-03-08T09:08:38;17.58;;;8.40;;
82806;SDS011;72563;44.816;20.484;2024-03-08T09:11:07;14.90;;;8.23;;
82806;SDS011;72563;44.816;20.484;2024-03-08T09:13:33;14.88;;;7.40;;
82806;SDS011;72563;44.816;20.484;2024-03-08T09:15:59;17.42;;;8.00;;
82806;SDS011;72563;44.816;20.484;2024-03-08T09:18:25;17.60;;;8.23;;
82806;SDS011;72563;44.816;20.484;2024-03-08T09:20:51;15.70;;;7.90;;
82806;SDS011;72563;44.816;20.484;2024-03-08T09:23:21;16.98;;;8.38;;
82806;SDS011;72563;44.816;20.484;2024-03-08T09:25:47;16.73;;;7.90;;
82806;SDS011;72563;44.816;20.484;2024-03-08T09:28:12;14.75;;;6.90;;
82806;SDS011;72563;44.816;20.484;2024-03-08T09:30:39;13.65;;;7.47;;
82806;SDS011;72563;44.816;20.484;2024-03-08T09:33:05;16.63;;;7.57;;
82806;SDS011;72563;44.816;20.484;2024-03-08T09:35:31;16.05;;;7.70;;
82806;SDS011;72563;44.816;20.484;2024-03-08T09:37:57;16.25;;;7.70;;
82806;SDS011;72563;44.816;20.484;2024-03-08T09:40:23;18.35;;;8.05;;
82806;SDS011;72563;44.816;20.484;2024-03-08T09:42:50;13.80;;;6.93;;
82806;SDS011;72563;44.816;20.484;2024-03-08T09:45:17;16.08;;;7.55;;
82806;SDS011;72563;44.816;20.484;2024-03-08T09:47:47;14.75;;;6.65;;
82806;SDS011;72563;44.816;20.484;2024-03-08T09:50:14;16.00;;;7.90;;
82806;SDS011;72563;44.816;20.484;2024-03-08T09:52:43;14.13;;;8.18;;
82806;SDS011;72563;44.816;20.484;2024-03-08T09:55:14;16.83;;;7.32;;
82806;SDS011;72563;44.816;20.484;2024-03-08T09:57:43;19.70;;;8.27;;
82806;SDS011;72563;44.816;20.484;2024-03-08T10:00:27;15.32;;;7.05;;
82806;SDS011;72563;44.816;20.484;2024-03-08T10:02:53;14.63;;;7.10;;
82806;SDS011;72563;44.816;20.484;2024-03-08T10:05:19;17.02;;;7.93;;
82806;SDS011;72563;44.816;20.484;2024-03-08T10:07:45;17.33;;;8.45;;
82806;SDS011;72563;44.816;20.484;2024-03-08T10:10:10;14.85;;;7.60;;
82806;SDS011;72563;44.816;20.484;2024-03-08T10:12:40;15.40;;;8.30;;
82806;SDS011;72563;44.816;20.484;2024-03-08T10:15:07;18.02;;;8.20;;
82806;SDS011;72563;44.816;20.484;2024-03-08T10:17:36;14.02;;;7.32;;
82806;SDS011;72563;44.816;20.484;2024-03-08T10:20:02;16.88;;;7.75;;
82806;SDS011;72563;44.816;20.484;2024-03-08T10:22:28;16.27;;;7.43;;
82806;SDS011;72563;44.816;20.484;2024-03-08T10:24:54;14.73;;;7.85;;
82806;SDS011;72563;44.816;20.484;2024-03-08T10:27:20;16.60;;;7.35;;
82806;SDS011;72563;44.816;20.484;2024-03-08T10:29:47;16.10;;;7.28;;
82806;SDS011;72563;44.816;20.484;2024-03-08T10:32:13;15.30;;;7.25;;
82806;SDS011;72563;44.816;20.484;2024-03-08T10:34:39;18.20;;;7.50;;
82806;SDS011;72563;44.816;20.484;2024-03-08T10:39:36;12.15;;;6.38;;
82806;SDS011;72563;44.816;20.484;2024-03-08T10:42:02;16.38;;;6.95;;
82806;SDS011;72563;44.816;20.484;2024-03-08T10:49:50;13.80;;;6.35;;
82806;SDS011;72563;44.816;20.484;2024-03-08T10:52:38;15.00;;;6.72;;
82806;SDS011;72563;44.816;20.484;2024-03-08T10:55:04;15.63;;;6.70;;
82806;SDS011;72563;44.816;20.484;2024-03-08T10:57:37;15.90;;;7.05;;
82806;SDS011;72563;44.816;20.484;2024-03-08T11:00:04;16.52;;;7.65;;
82806;SDS011;72563;44.816;20.484;2024-03-08T11:02:35;14.40;;;6.97;;
82806;SDS011;72563;44.816;20.484;2024-03-08T11:05:02;16.08;;;7.68;;
82806;SDS011;72563;44.816;20.484;2024-03-08T11:07:33;13.60;;;7.00;;
82806;SDS011;72563;44.816;20.484;2024-03-08T11:10:03;15.80;;;7.45;;
82806;SDS011;72563;44.816;20.484;2024-03-08T11:12:36;16.52;;;8.18;;
82806;SDS011;72563;44.816;20.484;2024-03-08T11:15:09;14.68;;;6.95;;
82806;SDS011;72563;44.816;20.484;2024-03-08T11:22:53;14.13;;;6.55;;
82806;SDS011;72563;44.816;20.484;2024-03-08T11:25:36;12.63;;;6.85;;
82806;SDS011;72563;44.816;20.484;2024-03-08T11:28:27;15.77;;;7.55;;
82806;SDS011;72563;44.816;20.484;2024-03-08T11:33:29;14.68;;;7.55;;
82806;SDS011;72563;44.816;20.484;2024-03-08T11:38:41;16.98;;;7.80;;
82806;SDS011;72563;44.816;20.484;2024-03-08T11:41:09;14.98;;;7.05;;
82806;SDS011;72563;44.816;20.484;2024-03-08T11:43:39;13.85;;;7.20;;
82806;SDS011;72563;44.816;20.484;2024-03-08T11:46:13;13.90;;;6.80;;
82806;SDS011;72563;44.816;20.484;2024-03-08T11:48:42;14.00;;;7.65;;
82806;SDS011;72563;44.816;20.484;2024-03-08T11:51:12;17.75;;;7.60;;
82806;SDS011;72563;44.816;20.484;2024-03-08T11:53:40;17.17;;;8.32;;
82806;SDS011;72563;44.816;20.484;2024-03-08T11:56:10;15.18;;;8.27;;
82806;SDS011;72563;44.816;20.484;2024-03-08T11:58:37;18.42;;;9.00;;
82806;SDS011;72563;44.816;20.484;2024-03-08T12:01:13;16.63;;;7.25;;
82806;SDS011;72563;44.816;20.484;2024-03-08T12:03:39;16.52;;;8.82;;
82806;SDS011;72563;44.816;20.484;2024-03-08T12:06:08;17.40;;;8.35;;
82806;SDS011;72563;44.816;20.484;2024-03-08T12:08:37;17.02;;;8.75;;
82806;SDS011;72563;44.816;20.484;2024-03-08T12:11:05;14.57;;;7.60;;
82806;SDS011;72563;44.816;20.484;2024-03-08T12:13:33;16.20;;;7.88;;
82806;SDS011;72563;44.816;20.484;2024-03-08T12:16:00;16.77;;;8.90;;
82806;SDS011;72563;44.816;20.484;2024-03-08T12:18:32;16.23;;;8.13;;
82806;SDS011;72563;44.816;20.484;2024-03-08T12:21:10;15.27;;;9.20;;
82806;SDS011;72563;44.816;20.484;2024-03-08T12:23:39;16.58;;;8.40;;
82806;SDS011;72563;44.816;20.484;2024-03-08T12:28:50;18.08;;;8.45;;
82806;SDS011;72563;44.816;20.484;2024-03-08T12:31:17;19.80;;;8.90;;
82806;SDS011;72563;44.816;20.484;2024-03-08T12:36:14;19.58;;;8.60;;
82806;SDS011;72563;44.816;20.484;2024-03-08T12:38:43;15.15;;;7.70;;
82806;SDS011;72563;44.816;20.484;2024-03-08T12:41:16;16.45;;;8.10;;
82806;SDS011;72563;44.816;20.484;2024-03-08T12:43:43;16.27;;;8.25;;
82806;SDS011;72563;44.816;20.484;2024-03-08T12:46:19;15.95;;;7.85;;
82806;SDS011;72563;44.816;20.484;2024-03-08T12:48:46;15.05;;;8.00;;
82806;SDS011;72563;44.816;20.484;2024-03-08T12:51:12;17.67;;;8.32;;
82806;SDS011;72563;44.816;20.484;2024-03-08T12:53:38;13.82;;;7.47;;
82806;SDS011;72563;44.816;20.484;2024-03-08T12:56:29;18.65;;;8.55;;
82806;SDS011;72563;44.816;20.484;2024-03-08T12:58:57;15.73;;;8.13;;
82806;SDS011;72563;44.816;20.484;2024-03-08T13:01:23;15.80;;;7.85;;
82806;SDS011;72563;44.816;20.484;2024-03-08T13:03:49;13.95;;;7.18;;
82806;SDS011;72563;44.816;20.484;2024-03-08T13:06:15;15.23;;;7.47;;
82806;SDS011;72563;44.816;20.484;2024-03-08T13:08:41;15.40;;;7.07;;
82806;SDS011;72563;44.816;20.484;2024-03-08T13:11:09;13.05;;;7.03;;
82806;SDS011;72563;44.816;20.484;2024-03-08T13:13:37;12.40;;;6.38;;
82806;SDS011;72563;44.816;20.484;2024-03-08T13:16:05;15.55;;;7.05;;
82806;SDS011;72563;44.816;20.484;2024-03-08T13:18:36;14.10;;;7.25;;
82806;SDS011;72563;44.816;20.484;2024-03-08T13:21:03;12.82;;;6.32;;
82806;SDS011;72563;44.816;20.484;2024-03-08T13:23:32;13.02;;;6.40;;
82806;SDS011;72563;44.816;20.484;2024-03-08T13:26:04;14.02;;;6.72;;
82806;SDS011;72563;44.816;20.484;2024-03-08T13:28:32;13.68;;;6.57;;
82806;SDS011;72563;44.816;20.484;2024-03-08T13:31:03;12.50;;;6.90;;
82806;SDS011;72563;44.816;20.484;2024-03-08T13:33:40;16.55;;;7.93;;
82806;SDS011;72563;44.816;20.484;2024-03-08T13:36:07;15.52;;;7.82;;
82806;SDS011;72563;44.816;20.484;2024-03-08T13:38:46;18.10;;;8.07;;
82806;SDS011;72563;44.816;20.484;2024-03-08T13:41:13;14.27;;;6.85;;
82806;SDS011;72563;44.816;20.484;2024-03-08T13:43:42;12.73;;;6.03;;
82806;SDS011;72563;44.816;20.484;2024-03-08T13:46:08;13.18;;;6.10;;
82806;SDS011;72563;44.816;20.484;2024-03-08T13:48:35;13.45;;;5.85;;
82806;SDS011;72563;44.816;20.484;2024-03-08T13:51:02;11.52;;;5.57;;
82806;SDS011;72563;44.816;20.484;2024-03-08T13:53:33;13.18;;;6.10;;
82806;SDS011;72563;44.816;20.484;2024-03-08T13:56:03;11.63;;;5.72;;
82806;SDS011;72563;44.816;20.484;2024-03-08T14:00:56;11.45;;;5.72;;
82806;SDS011;72563;44.816;20.484;2024-03-08T14:03:22;11.63;;;6.05;;
82806;SDS011;72563;44.816;20.484;2024-03-08T14:05:49;13.15;;;6.75;;
82806;SDS011;72563;44.816;20.484;2024-03-08T14:08:15;13.35;;;6.93;;
82806;SDS011;72563;44.816;20.484;2024-03-08T14:10:42;13.13;;;6.38;;
82806;SDS011;72563;44.816;20.484;2024-03-08T14:13:08;12.25;;;5.93;;
82806;SDS011;72563;44.816;20.484;2024-03-08T14:15:34;12.23;;;6.80;;
82806;SDS011;72563;44.816;20.484;2024-03-08T14:18:00;13.38;;;6.60;;
82806;SDS011;72563;44.816;20.484;2024-03-08T14:20:27;13.15;;;6.45;;
82806;SDS011;72563;44.816;20.484;2024-03-08T14:22:55;13.18;;;6.75;;
82806;SDS011;72563;44.816;20.484;2024-03-08T14:25:21;11.43;;;5.78;;
82806;SDS011;72563;44.816;20.484;2024-03-08T14:27:51;11.85;;;5.88;;
82806;SDS011;72563;44.816;20.484;2024-03-08T14:30:20;12.25;;;5.40;;
82806;SDS011;72563;44.816;20.484;2024-03-08T14:32:59;11.13;;;6.30;;
82806;SDS011;72563;44.816;20.484;2024-03-08T14:35:28;12.32;;;6.13;;
82806;SDS011;72563;44.816;20.484;2024-03-08T14:37:55;11.63;;;5.50;;
82806;SDS011;72563;44.816;20.484;2024-03-08T14:40:24;12.40;;;5.78;;
82806;SDS011;72563;44.816;20.484;2024-03-08T14:42:51;12.77;;;6.30;;
82806;SDS011;72563;44.816;20.484;2024-03-08T14:45:16;10.93;;;5.47;;
82806;SDS011;72563;44.816;20.484;2024-03-08T14:47:48;11.90;;;6.03;;
82806;SDS011;72563;44.816;20.484;2024-03-08T14:50:18;13.85;;;6.18;;
82806;SDS011;72563;44.816;20.484;2024-03-08T14:52:45;11.38;;;5.72;;
82806;SDS011;72563;44.816;20.484;2024-03-08T14:55:17;12.80;;;6.25;;